Time;durP1;ratioP1;P1;durP2;ratioP2;P2;SDS_P1;SDS_P2;PMS_P1;PMS_P2;Temp;Humidity;BMP_temperature;BMP_pressure;BME280_temperature;BME280_humidity;BME280_pressure;Samples;Min_cycle;Max_cycle;Signal;HPM_P1;HPM_P2
2023/03/08 00:00:54;;;;;;;10.98;4.18;;;0.80;99.90;;;;;;5039085;28;20029;-73
2023/03/08 00:03:19;;;;;;;15.60;4.47;;;0.80;99.90;;;;;;5041053;28;20033;-75
2023/03/08 00:05:45;;;;;;;12.07;4.07;;;0.80;99.90;;;;;;5040876;28;20041;-72
2023/03/08 00:08:10;;;;;;;11.48;4.43;;;0.80;99.90;;;;;;5038574;28;20017;-74
2023/03/08 00:10:37;;;;;;;11.02;4.22;;;0.70;99.90;;;;;;5038330;28;20033;-73
2023/03/08 00:13:02;;;;;;;13.00;4.13;;;0.70;99.90;;;;;;5038374;28;20026;-74
2023/03/08 00:15:28;;;;;;;12.73;4.18;;;0.60;99.90;;;;;;5040541;28;20029;-74
2023/03/08 00:17:53;;;;;;;11.98;4.05;;;0.60;99.90;;;;;;5040304;28;20025;-73
2023/03/08 00:20:19;;;;;;;10.32;4.60;;;0.60;99.90;;;;;;5039533;28;20059;-71
2023/03/08 00:22:45;;;;;;;8.52;3.80;;;0.50;99.90;;;;;;5037853;28;20049;-71
2023/03/08 00:25:11;;;;;;;8.52;4.03;;;0.50;99.90;;;;;;5040244;28;20037;-72
2023/03/08 00:27:37;;;;;;;10.40;4.07;;;0.50;99.90;;;;;;5039402;28;20069;-71
2023/03/08 00:30:06;;;;;;;8.98;4.15;;;0.50;99.90;;;;;;5038937;28;20096;-72
2023/03/08 00:32:32;;;;;;;13.65;4.57;;;0.50;99.90;;;;;;5037507;28;20044;-72
2023/03/08 00:34:57;;;;;;;14.02;4.00;;;0.40;99.90;;;;;;5037713;28;20048;-74
2023/03/08 00:37:23;;;;;;;11.48;4.22;;;0.40;99.90;;;;;;5038173;28;20035;-71
2023/03/08 00:39:53;;;;;;;15.98;4.25;;;0.40;99.90;;;;;;5037893;28;20372;-72
2023/03/08 00:42:20;;;;;;;15.88;4.05;;;0.40;99.90;;;;;;5039737;28;20044;-74
2023/03/08 00:44:46;;;;;;;8.60;4.50;;;0.40;99.90;;;;;;5038367;28;20045;-73
2023/03/08 00:47:12;;;;;;;12.25;4.80;;;0.30;99.90;;;;;;5039806;28;20032;-72
2023/03/08 00:49:37;;;;;;;11.35;4.53;;;0.30;99.90;;;;;;5037759;28;20029;-71
2023/03/08 00:52:03;;;;;;;12.00;4.80;;;0.30;99.90;;;;;;5036339;28;20123;-71
2023/03/08 00:54:29;;;;;;;13.73;5.10;;;0.30;99.90;;;;;;5038965;28;20026;-73
2023/03/08 00:56:55;;;;;;;14.90;4.57;;;0.20;99.90;;;;;;5039103;28;20018;-72
2023/03/08 00:59:21;;;;;;;10.20;5.10;;;0.20;99.90;;;;;;5038033;28;20029;-71
2023/03/08 01:01:46;;;;;;;8.40;4.55;;;0.20;99.90;;;;;;5039483;28;20033;-71
2023/03/08 01:04:12;;;;;;;13.18;4.72;;;0.20;99.90;;;;;;5036588;28;20786;-73
2023/03/08 01:06:38;;;;;;;20.77;5.28;;;0.20;99.90;;;;;;5039442;28;20055;-72
2023/03/08 01:09:04;;;;;;;11.13;5.15;;;0.20;99.90;;;;;;5039180;28;20021;-71
2023/03/08 01:11:32;;;;;;;13.27;5.45;;;0.20;99.90;;;;;;5038732;28;20010;-73
2023/03/08 01:13:58;;;;;;;15.07;5.15;;;0.20;99.90;;;;;;5038042;28;20085;-74
2023/03/08 01:16:27;;;;;;;9.95;5.35;;;0.20;99.90;;;;;;5038380;28;20017;-73
2023/03/08 01:18:53;;;;;;;11.75;5.20;;;0.10;99.90;;;;;;5039073;28;20562;-71
2023/03/08 01:21:20;;;;;;;12.75;5.50;;;0.10;99.90;;;;;;5039199;28;20036;-72
2023/03/08 01:23:46;;;;;;;9.00;4.90;;;0.10;99.90;;;;;;5037377;28;20047;-73
2023/03/08 01:26:14;;;;;;;8.95;4.63;;;0.10;99.90;;;;;;5038140;28;20120;-72
2023/03/08 01:28:41;;;;;;;16.60;5.57;;;0.10;99.90;;;;;;5038755;28;20036;-71
2023/03/08 01:31:11;;;;;;;12.13;4.93;;;0.10;99.90;;;;;;5038472;28;20025;-74
2023/03/08 01:33:37;;;;;;;14.65;4.97;;;0.10;99.90;;;;;;5038746;28;20025;-73
2023/03/08 01:36:05;;;;;;;14.32;5.35;;;0.10;99.90;;;;;;5037300;28;20504;-72
2023/03/08 01:38:31;;;;;;;11.75;5.03;;;0.00;99.90;;;;;;5037684;28;20021;-72
2023/03/08 01:40:58;;;;;;;8.65;5.05;;;0.00;99.90;;;;;;5038296;28;20020;-74
2023/03/08 01:43:30;;;;;;;9.82;4.60;;;0.00;99.90;;;;;;5038632;28;20037;-73
2023/03/08 01:46:24;;;;;;;9.93;4.93;;;0.00;99.90;;;;;;5037842;28;20029;-72
2023/03/08 01:49:12;;;;;;;8.80;4.32;;;0.00;99.90;;;;;;5038592;28;20072;-73
2023/03/08 01:51:50;;;;;;;10.52;5.18;;;0.00;99.90;;;;;;5037550;28;20032;-72
2023/03/08 01:54:21;;;;;;;12.00;4.93;;;0.00;99.90;;;;;;5038472;28;20029;-74
2023/03/08 01:56:49;;;;;;;12.70;5.28;;;0.00;99.90;;;;;;5038608;28;20033;-73
2023/03/08 01:59:15;;;;;;;11.45;5.13;;;0.00;99.90;;;;;;5037251;28;20599;-71
2023/03/08 02:01:41;;;;;;;10.82;5.10;;;0.00;99.90;;;;;;5037215;28;20056;-72
2023/03/08 02:04:08;;;;;;;16.77;5.70;;;0.00;99.90;;;;;;5038028;28;20017;-72
2023/03/08 02:06:34;;;;;;;12.45;5.50;;;0.00;99.90;;;;;;5036599;28;20040;-72
2023/03/08 02:09:03;;;;;;;9.38;5.55;;;-0.10;99.90;;;;;;5037692;28;20025;-71
2023/03/08 02:11:30;;;;;;;15.68;5.50;;;0.00;99.90;;;;;;5037885;28;20025;-71
2023/03/08 02:13:56;;;;;;;9.23;5.22;;;-0.10;99.90;;;;;;5036869;28;20044;-73
2023/03/08 02:16:22;;;;;;;8.63;5.00;;;-0.10;99.90;;;;;;5038220;28;20025;-72
2023/03/08 02:18:50;;;;;;;16.65;5.45;;;-0.10;99.90;;;;;;5038682;28;20032;-71
2023/03/08 02:21:16;;;;;;;13.35;5.45;;;-0.10;99.90;;;;;;5037789;28;20053;-72
2023/03/08 02:23:41;;;;;;;8.88;4.90;;;-0.10;99.90;;;;;;5036008;28;20052;-72
2023/03/08 02:26:07;;;;;;;8.63;4.97;;;-0.20;99.90;;;;;;5038212;28;20761;-72
2023/03/08 02:28:33;;;;;;;10.98;5.38;;;-0.10;99.90;;;;;;5038129;28;20030;-72
2023/03/08 02:30:58;;;;;;;16.45;5.00;;;-0.10;99.90;;;;;;5036158;28;20029;-74
2023/03/08 02:33:24;;;;;;;9.93;5.00;;;-0.10;99.90;;;;;;5036584;28;20112;-73
2023/03/08 02:35:50;;;;;;;14.45;5.28;;;-0.10;99.90;;;;;;5038100;28;20033;-74
2023/03/08 02:38:18;;;;;;;14.55;4.60;;;-0.10;99.90;;;;;;5036360;28;20036;-74
2023/03/08 02:40:44;;;;;;;8.55;4.53;;;-0.10;99.90;;;;;;5036184;28;20037;-75
2023/03/08 02:43:10;;;;;;;8.63;4.80;;;-0.10;99.90;;;;;;5037174;28;20040;-73
2023/03/08 02:45:36;;;;;;;10.57;4.97;;;-0.10;99.90;;;;;;5038505;28;20090;-73
2023/03/08 02:48:03;;;;;;;10.57;5.05;;;-0.10;99.90;;;;;;5038530;28;20068;-73
2023/03/08 02:50:30;;;;;;;9.98;4.85;;;-0.10;99.90;;;;;;5036557;28;20052;-74
2023/03/08 02:52:56;;;;;;;10.45;5.30;;;-0.10;99.90;;;;;;5038008;28;20033;-74
2023/03/08 02:55:21;;;;;;;14.40;5.22;;;-0.10;99.90;;;;;;5037644;28;20022;-75
2023/03/08 02:57:47;;;;;;;10.82;5.18;;;-0.10;99.90;;;;;;5038937;28;20034;-73
2023/03/08 03:00:13;;;;;;;8.85;4.93;;;-0.10;99.90;;;;;;5037544;28;20033;-73
2023/03/08 03:02:39;;;;;;;12.30;4.75;;;-0.10;99.90;;;;;;5037211;28;20037;-72
2023/03/08 03:05:06;;;;;;;10.73;5.22;;;-0.10;99.90;;;;;;5038560;28;20036;-74
2023/03/08 03:07:35;;;;;;;9.75;5.30;;;-0.10;99.90;;;;;;5038783;28;20029;-73
2023/03/08 03:10:02;;;;;;;13.30;5.50;;;-0.10;99.90;;;;;;5038340;28;21019;-73
2023/03/08 03:12:28;;;;;;;11.60;5.45;;;-0.10;99.90;;;;;;5034211;28;20029;-73
2023/03/08 03:14:54;;;;;;;11.90;5.05;;;0.00;99.90;;;;;;5038334;28;20060;-74
2023/03/08 03:17:19;;;;;;;10.45;4.95;;;0.00;99.90;;;;;;5041977;28;20538;-72
2023/03/08 03:19:45;;;;;;;11.50;4.85;;;0.00;99.90;;;;;;5042571;28;20021;-74
2023/03/08 03:22:10;;;;;;;12.32;5.60;;;0.00;99.90;;;;;;5040654;28;20504;-73
2023/03/08 03:24:36;;;;;;;17.42;5.55;;;0.10;99.90;;;;;;5042309;28;20049;-72
2023/03/08 03:27:02;;;;;;;12.02;5.63;;;0.10;99.90;;;;;;5040959;28;20056;-73
2023/03/08 03:29:27;;;;;;;16.08;5.35;;;0.10;99.90;;;;;;5042450;28;20041;-75
2023/03/08 03:31:53;;;;;;;10.65;5.50;;;0.10;99.90;;;;;;5041093;28;20045;-73
2023/03/08 03:34:18;;;;;;;13.73;6.00;;;0.00;99.90;;;;;;5042288;28;20025;-72
2023/03/08 03:36:44;;;;;;;14.50;5.97;;;0.00;99.90;;;;;;5041966;28;20411;-73
2023/03/08 03:39:10;;;;;;;15.85;6.38;;;0.00;99.90;;;;;;5041859;28;20071;-73
2023/03/08 03:41:35;;;;;;;15.60;6.70;;;0.00;99.90;;;;;;5040850;28;20033;-73
2023/03/08 03:44:01;;;;;;;14.05;6.57;;;-0.10;99.90;;;;;;5042179;28;20029;-72
2023/03/08 03:46:26;;;;;;;13.63;6.55;;;0.10;99.90;;;;;;5042163;28;20124;-72
2023/03/08 03:48:52;;;;;;;16.02;7.35;;;-0.10;99.90;;;;;;5040388;28;20037;-73
2023/03/08 03:51:20;;;;;;;15.63;7.38;;;-0.10;99.90;;;;;;5041785;28;20030;-73
2023/03/08 03:53:46;;;;;;;16.80;7.65;;;-0.10;99.90;;;;;;5040171;28;20024;-72
2023/03/08 03:56:17;;;;;;;15.57;8.70;;;-0.10;99.90;;;;;;5041193;28;20022;-73
2023/03/08 03:58:43;;;;;;;16.55;8.48;;;-0.10;99.90;;;;;;5040493;28;20040;-74
2023/03/08 04:01:17;;;;;;;25.10;9.95;;;-0.10;99.90;;;;;;5040661;28;20030;-72
2023/03/08 04:03:43;;;;;;;22.48;10.30;;;-0.10;99.90;;;;;;5040199;28;20037;-73
2023/03/08 04:06:21;;;;;;;26.65;11.15;;;-0.10;99.90;;;;;;5041960;28;20026;-74
2023/03/08 04:08:48;;;;;;;29.52;11.32;;;0.00;99.90;;;;;;5041891;28;20040;-72
2023/03/08 04:11:16;;;;;;;24.65;11.50;;;0.00;99.90;;;;;;5041220;28;20613;-73
2023/03/08 04:13:42;;;;;;;27.80;12.23;;;0.00;99.90;;;;;;5041111;28;20032;-73
2023/03/08 04:16:16;;;;;;;23.70;11.52;;;0.00;99.90;;;;;;5041098;28;20701;-72
2023/03/08 04:18:42;;;;;;;26.23;12.35;;;0.00;99.90;;;;;;5040233;28;20022;-75
2023/03/08 04:21:08;;;;;;;34.33;13.13;;;-0.10;99.90;;;;;;5039912;28;20100;-74
2023/03/08 04:23:34;;;;;;;32.90;14.07;;;-0.10;99.90;;;;;;5039633;28;20041;-73
2023/03/08 04:25:59;;;;;;;29.63;13.05;;;-0.10;99.90;;;;;;5040229;28;20145;-73
2023/03/08 04:28:25;;;;;;;32.17;13.70;;;-0.10;99.90;;;;;;5040979;28;20085;-74
2023/03/08 04:30:51;;;;;;;35.15;14.73;;;-0.10;99.90;;;;;;5041399;28;20033;-73
2023/03/08 04:33:16;;;;;;;39.45;14.95;;;-0.10;99.90;;;;;;5041217;28;20030;-74
2023/03/08 04:35:42;;;;;;;33.15;15.07;;;-0.10;99.90;;;;;;5040759;28;20029;-73
2023/03/08 04:38:08;;;;;;;35.17;15.13;;;-0.10;99.90;;;;;;5040627;28;20034;-73
2023/03/08 04:41:00;;;;;;;38.25;14.98;;;-0.20;99.90;;;;;;5040150;28;20075;-74
2023/03/08 04:43:19;;;;;;;36.78;15.82;;;-0.20;99.90;;;;;;5040350;28;20041;-74
2023/03/08 04:45:44;;;;;;;36.03;16.27;;;-0.20;99.90;;;;;;5039255;28;20022;-73
2023/03/08 04:48:10;;;;;;;37.60;15.80;;;-0.20;99.90;;;;;;5040727;28;20021;-72
2023/03/08 04:50:38;;;;;;;35.45;15.23;;;-0.20;99.90;;;;;;5040935;28;20033;-72
2023/03/08 04:53:04;;;;;;;42.65;16.90;;;-0.30;99.90;;;;;;5040306;28;20109;-72
2023/03/08 04:55:29;;;;;;;40.80;16.27;;;-0.30;99.90;;;;;;5040820;28;20025;-73
2023/03/08 04:57:55;;;;;;;40.83;16.35;;;-0.30;99.90;;;;;;5040682;28;20403;-72
2023/03/08 05:00:21;;;;;;;40.35;16.75;;;-0.30;99.90;;;;;;5040985;28;20026;-74
2023/03/08 05:02:46;;;;;;;40.80;16.70;;;-0.30;99.90;;;;;;5038709;28;20046;-72
2023/03/08 05:05:12;;;;;;;40.35;17.95;;;-0.40;99.90;;;;;;5039690;28;20033;-74
2023/03/08 05:07:38;;;;;;;41.70;17.15;;;-0.40;99.90;;;;;;5039290;28;20037;-74
2023/03/08 05:10:04;;;;;;;44.03;18.70;;;-0.40;99.90;;;;;;5039466;28;20025;-73
2023/03/08 05:12:29;;;;;;;45.35;19.17;;;-0.40;99.90;;;;;;5039832;28;20066;-73
2023/03/08 05:14:55;;;;;;;43.72;18.88;;;-0.40;99.90;;;;;;5038913;28;20065;-73
2023/03/08 05:17:21;;;;;;;47.17;18.77;;;-0.40;99.90;;;;;;5038817;28;20044;-74
2023/03/08 05:19:46;;;;;;;42.47;18.33;;;-0.40;99.90;;;;;;5039857;28;20029;-73
2023/03/08 05:22:12;;;;;;;46.55;18.75;;;-0.40;99.90;;;;;;5040248;28;20060;-74
2023/03/08 05:24:39;;;;;;;47.25;18.58;;;-0.40;99.90;;;;;;5037516;28;20033;-74
2023/03/08 05:27:08;;;;;;;46.50;18.92;;;-0.40;99.90;;;;;;5038960;28;20693;-73
2023/03/08 05:29:35;;;;;;;47.60;19.02;;;-0.40;99.90;;;;;;5039554;28;20029;-74
2023/03/08 05:32:01;;;;;;;51.85;19.60;;;-0.50;99.90;;;;;;5040213;28;20175;-75
2023/03/08 05:34:28;;;;;;;45.13;20.25;;;-0.50;99.90;;;;;;5039936;28;20053;-74
2023/03/08 05:36:53;;;;;;;52.33;19.58;;;-0.50;99.90;;;;;;5039726;28;20036;-74
2023/03/08 05:39:19;;;;;;;47.35;19.85;;;-0.50;99.90;;;;;;5038285;28;20025;-74
2023/03/08 05:41:45;;;;;;;48.03;19.65;;;-0.50;99.90;;;;;;5038828;28;20040;-73
2023/03/08 05:44:10;;;;;;;47.83;18.90;;;-0.50;99.90;;;;;;5039879;28;20022;-74
2023/03/08 05:46:39;;;;;;;49.85;19.90;;;-0.50;99.90;;;;;;5038483;28;20029;-74
2023/03/08 05:49:05;;;;;;;44.40;18.95;;;-0.50;99.90;;;;;;5039753;28;20020;-73
2023/03/08 05:51:31;;;;;;;47.58;20.73;;;-0.50;99.90;;;;;;5039947;28;20398;-74
2023/03/08 05:53:57;;;;;;;50.83;19.92;;;-0.50;99.90;;;;;;5039390;28;20029;-74
2023/03/08 05:56:23;;;;;;;46.70;20.00;;;-0.40;99.90;;;;;;5038710;28;20045;-74
2023/03/08 05:58:49;;;;;;;50.45;20.13;;;-0.40;99.90;;;;;;5038122;28;20036;-73
2023/03/08 06:01:19;;;;;;;44.30;20.05;;;-0.40;99.90;;;;;;5037616;28;20018;-72
2023/03/08 06:03:47;;;;;;;52.45;18.33;;;-0.40;99.90;;;;;;5037438;28;20041;-73
2023/03/08 06:06:14;;;;;;;46.88;18.55;;;-0.40;99.90;;;;;;5037244;28;20072;-74
2023/03/08 06:08:40;;;;;;;53.55;20.58;;;-0.40;99.90;;;;;;5037421;28;20055;-74
2023/03/08 06:11:05;;;;;;;53.47;21.77;;;-0.40;99.90;;;;;;5039189;28;20230;-74
2023/03/08 06:13:32;;;;;;;46.30;19.35;;;-0.40;99.90;;;;;;5038929;28;20025;-73
2023/03/08 06:15:58;;;;;;;52.88;20.33;;;-0.30;99.90;;;;;;5039490;28;20394;-75
2023/03/08 06:18:25;;;;;;;45.65;18.58;;;-0.30;99.90;;;;;;5039364;28;20071;-74
2023/03/08 06:21:03;;;;;;;48.33;19.05;;;-0.30;99.90;;;;;;5054335;28;20025;-75
2023/03/08 06:23:29;;;;;;;41.70;20.05;;;-0.20;99.90;;;;;;5039006;28;20052;-75
2023/03/08 06:25:56;;;;;;;55.78;22.58;;;-0.30;99.90;;;;;;5037889;28;20544;-75
2023/03/08 06:28:22;;;;;;;66.40;24.88;;;-0.20;99.90;;;;;;5039125;28;20114;-74
2023/03/08 06:30:48;;;;;;;120.20;39.47;;;-0.20;99.90;;;;;;5039478;28;20025;-73
2023/03/08 06:33:19;;;;;;;67.88;25.85;;;-0.20;99.90;;;;;;5039068;28;20045;-74
2023/03/08 06:35:59;;;;;;;47.60;21.48;;;-0.20;99.90;;;;;;5039201;28;20030;-73
2023/03/08 06:38:26;;;;;;;47.70;19.73;;;-0.10;99.90;;;;;;5038332;28;20113;-73
2023/03/08 06:40:52;;;;;;;45.20;20.42;;;-0.10;99.90;;;;;;5039294;28;20077;-74
2023/03/08 06:43:18;;;;;;;47.50;19.50;;;-0.10;99.90;;;;;;5035528;28;20030;-73
2023/03/08 06:45:44;;;;;;;46.22;20.60;;;0.00;99.90;;;;;;5037784;28;20101;-72
2023/03/08 06:48:09;;;;;;;43.97;18.90;;;0.00;99.90;;;;;;5039183;28;20033;-71
2023/03/08 06:50:35;;;;;;;46.58;20.58;;;0.00;99.90;;;;;;5039749;28;20033;-71
2023/03/08 06:53:03;;;;;;;53.85;19.45;;;0.00;99.90;;;;;;5042517;28;20032;-71
2023/03/08 06:55:28;;;;;;;53.72;21.77;;;0.00;99.90;;;;;;5043086;28;20715;-71
2023/03/08 06:57:54;;;;;;;52.90;21.30;;;0.00;99.90;;;;;;5043406;28;20048;-73
2023/03/08 07:00:21;;;;;;;59.33;23.13;;;0.10;99.90;;;;;;5035032;28;20021;-71
2023/03/08 07:02:47;;;;;;;56.50;22.63;;;0.10;99.90;;;;;;5034341;28;20062;-71
2023/03/08 07:05:14;;;;;;;53.42;23.77;;;0.10;99.90;;;;;;5041882;28;20056;-72
2023/03/08 07:07:43;;;;;;;58.28;26.52;;;0.20;99.90;;;;;;5040782;28;20053;-71
2023/03/08 07:10:10;;;;;;;57.20;24.58;;;0.20;99.90;;;;;;5041436;28;20551;-72
2023/03/08 07:12:39;;;;;;;62.92;27.20;;;0.30;99.90;;;;;;5039144;28;20030;-72
2023/03/08 07:15:08;;;;;;;60.00;27.80;;;0.30;99.90;;;;;;5039317;28;20406;-72
2023/03/08 07:17:34;;;;;;;81.68;34.90;;;0.40;99.90;;;;;;5042033;28;20040;-71
2023/03/08 07:20:01;;;;;;;61.30;25.67;;;0.50;99.90;;;;;;5039020;28;20022;-71
2023/03/08 07:22:28;;;;;;;58.78;25.30;;;0.50;99.90;;;;;;5041236;28;20045;-72
2023/03/08 07:24:54;;;;;;;49.97;22.00;;;0.60;99.90;;;;;;5040263;28;20025;-72
2023/03/08 07:27:19;;;;;;;57.92;23.75;;;0.70;99.90;;;;;;5038749;28;20088;-72
2023/03/08 07:29:45;;;;;;;56.58;25.92;;;0.70;99.90;;;;;;5041339;28;20089;-71
2023/03/08 07:32:10;;;;;;;57.38;24.63;;;0.80;99.90;;;;;;5040788;28;20018;-71
2023/03/08 07:34:36;;;;;;;52.58;24.80;;;0.90;99.90;;;;;;5039833;28;20045;-71
2023/03/08 07:37:02;;;;;;;63.53;25.92;;;0.90;99.90;;;;;;5031592;28;20025;-72
2023/03/08 07:39:28;;;;;;;50.53;23.98;;;0.90;99.90;;;;;;5040555;28;20105;-72
2023/03/08 07:41:54;;;;;;;52.78;22.67;;;1.00;99.90;;;;;;5039739;28;20040;-71
2023/03/08 07:44:20;;;;;;;50.17;21.60;;;1.00;99.90;;;;;;5041405;28;20033;-72
2023/03/08 07:46:46;;;;;;;55.05;22.98;;;1.10;99.90;;;;;;5042615;28;20052;-70
2023/03/08 07:49:11;;;;;;;46.88;20.90;;;1.10;99.90;;;;;;5042374;28;20041;-71
2023/03/08 07:51:37;;;;;;;55.60;23.40;;;1.10;99.90;;;;;;5042148;28;20021;-70
2023/03/08 07:54:03;;;;;;;63.78;26.00;;;1.10;99.90;;;;;;5040411;28;20026;-70
2023/03/08 07:56:29;;;;;;;61.83;27.55;;;1.20;99.90;;;;;;5042243;28;20478;-71
2023/03/08 07:58:56;;;;;;;65.25;28.48;;;1.20;99.90;;;;;;5041076;28;20022;-72
2023/03/08 08:01:22;;;;;;;76.68;29.15;;;1.20;99.90;;;;;;5041381;28;20018;-70
2023/03/08 08:03:49;;;;;;;78.00;30.83;;;1.30;99.90;;;;;;5040804;28;20052;-72
2023/03/08 08:06:15;;;;;;;83.82;32.35;;;1.30;99.90;;;;;;5040852;28;20044;-70
2023/03/08 08:08:40;;;;;;;86.47;35.25;;;1.30;99.90;;;;;;5040794;28;20022;-70
2023/03/08 08:11:11;;;;;;;87.22;33.03;;;1.40;99.90;;;;;;5040946;28;20029;-70
2023/03/08 08:13:37;;;;;;;88.78;33.00;;;1.40;99.90;;;;;;5041593;28;20022;-70
2023/03/08 08:16:02;;;;;;;88.18;35.30;;;1.40;99.90;;;;;;5041802;28;20088;-70
2023/03/08 08:18:28;;;;;;;92.82;35.35;;;1.30;99.90;;;;;;5042037;28;20064;-70
2023/03/08 08:21:06;;;;;;;71.03;27.58;;;1.40;99.90;;;;;;5043615;28;20025;-70
2023/03/08 08:23:32;;;;;;;82.05;31.73;;;1.30;99.90;;;;;;5041238;28;20064;-70
2023/03/08 08:25:57;;;;;;;75.80;31.85;;;1.30;99.90;;;;;;5042602;28;20026;-70
2023/03/08 08:28:25;;;;;;;85.40;34.83;;;1.40;99.90;;;;;;5042662;28;20050;-71
2023/03/08 08:31:09;;;;;;;93.10;35.72;;;1.40;99.90;;;;;;5043416;28;20029;-71
2023/03/08 08:33:35;;;;;;;90.45;35.88;;;1.40;99.90;;;;;;5041257;28;20036;-70
2023/03/08 08:36:07;;;;;;;90.72;34.90;;;1.40;99.90;;;;;;5043029;28;20030;-70
2023/03/08 08:38:33;;;;;;;98.40;38.92;;;1.50;99.90;;;;;;5042483;28;20025;-70
2023/03/08 08:41:06;;;;;;;94.18;38.25;;;1.50;99.90;;;;;;5041707;28;20037;-71
2023/03/08 08:43:33;;;;;;;95.53;37.28;;;1.60;99.90;;;;;;5041619;28;20037;-69
2023/03/08 08:46:00;;;;;;;89.05;36.72;;;1.60;99.90;;;;;;5042039;28;20077;-69
2023/03/08 08:48:26;;;;;;;97.20;35.70;;;1.60;99.90;;;;;;5043143;28;20490;-71
2023/03/08 08:50:52;;;;;;;100.95;35.92;;;1.70;99.90;;;;;;5043282;28;20033;-73
2023/03/08 08:53:19;;;;;;;93.15;34.80;;;1.60;99.90;;;;;;5042824;28;20033;-70
2023/03/08 08:55:44;;;;;;;92.95;35.67;;;1.60;99.90;;;;;;5041652;28;20021;-69
2023/03/08 08:58:10;;;;;;;88.43;35.38;;;1.60;99.90;;;;;;5039883;28;20509;-69
2023/03/08 09:00:37;;;;;;;103.43;40.80;;;1.60;99.90;;;;;;5038613;28;20036;-69
2023/03/08 09:03:03;;;;;;;101.90;37.28;;;1.60;99.90;;;;;;5040780;28;20077;-71
2023/03/08 09:05:30;;;;;;;124.53;44.22;;;1.70;99.90;;;;;;5039765;28;20124;-70
2023/03/08 09:07:58;;;;;;;110.00;41.45;;;1.70;99.90;;;;;;5042175;28;20033;-70
2023/03/08 09:10:26;;;;;;;106.53;39.97;;;1.70;99.90;;;;;;5041555;28;20017;-70
2023/03/08 09:12:51;;;;;;;89.95;34.58;;;1.70;99.90;;;;;;5041414;28;20116;-71
2023/03/08 09:15:17;;;;;;;108.38;40.30;;;1.60;99.90;;;;;;5040207;28;20103;-70
2023/03/08 09:17:43;;;;;;;120.47;42.78;;;1.60;99.90;;;;;;5042075;28;20061;-69
2023/03/08 09:20:09;;;;;;;118.72;44.00;;;1.60;99.90;;;;;;5041072;28;20057;-70
2023/03/08 09:22:36;;;;;;;128.43;45.85;;;1.60;99.90;;;;;;5038400;28;20041;-69
2023/03/08 09:25:02;;;;;;;122.75;46.40;;;1.70;99.90;;;;;;5040803;28;20048;-69
2023/03/08 09:27:28;;;;;;;134.07;49.92;;;1.70;99.90;;;;;;5041817;28;20117;-72
2023/03/08 09:29:54;;;;;;;141.18;49.40;;;1.80;99.90;;;;;;5039070;28;20116;-71
2023/03/08 09:32:19;;;;;;;136.50;51.55;;;1.80;99.90;;;;;;5041473;28;20028;-71
2023/03/08 09:34:46;;;;;;;136.98;52.13;;;1.90;99.90;;;;;;5040058;28;20052;-69
2023/03/08 09:37:11;;;;;;;144.75;52.92;;;1.90;99.90;;;;;;5039558;28;20120;-70
2023/03/08 09:39:39;;;;;;;137.68;50.92;;;2.00;99.90;;;;;;5040318;28;20064;-70
2023/03/08 09:42:06;;;;;;;127.28;50.95;;;2.10;99.90;;;;;;5035729;28;20409;-69
2023/03/08 09:45:10;;;;;;;140.30;50.50;;;2.20;99.90;;;;;;5038863;28;20036;-69
2023/03/08 09:47:50;;;;;;;136.13;49.67;;;2.20;99.90;;;;;;5038634;28;20125;-70
2023/03/08 09:50:36;;;;;;;131.25;48.45;;;2.30;99.90;;;;;;5038193;28;20037;-69
2023/03/08 09:53:58;;;;;;;137.63;50.80;;;2.30;99.90;;;;;;5040387;28;20040;-70
2023/03/08 09:56:42;;;;;;;137.07;51.28;;;2.30;99.90;;;;;;5019419;28;20030;-69
2023/03/08 09:59:33;;;;;;;153.57;54.35;;;2.40;99.90;;;;;;5018863;28;20084;-69
2023/03/08 10:02:05;;;;;;;155.18;55.35;;;2.40;99.90;;;;;;5028559;28;20044;-70
2023/03/08 10:04:39;;;;;;;138.40;51.85;;;2.30;99.90;;;;;;5039033;28;20027;-69
2023/03/08 10:07:39;;;;;;;143.20;51.75;;;2.30;99.90;;;;;;5040794;28;20144;-71
2023/03/08 10:10:26;;;;;;;143.68;52.08;;;2.40;99.90;;;;;;5036109;28;20089;-70
2023/03/08 10:13:04;;;;;;;124.25;47.75;;;2.50;99.90;;;;;;5040039;28;20041;-70
2023/03/08 10:15:34;;;;;;;137.27;53.28;;;2.60;99.90;;;;;;5040507;28;20089;-69
2023/03/08 10:18:14;;;;;;;127.15;49.72;;;2.60;99.90;;;;;;5039745;28;20051;-70
2023/03/08 10:20:41;;;;;;;118.60;45.25;;;2.70;99.90;;;;;;5041008;28;20085;-70
2023/03/08 10:23:13;;;;;;;120.60;46.65;;;2.80;99.90;;;;;;5040933;28;20044;-69
2023/03/08 10:25:39;;;;;;;115.65;44.08;;;2.90;99.90;;;;;;5040503;28;20039;-69
2023/03/08 10:28:17;;;;;;;116.97;46.22;;;2.90;99.90;;;;;;5040487;28;20057;-71
2023/03/08 10:30:48;;;;;;;105.97;43.78;;;3.00;99.90;;;;;;5040918;28;20028;-71
2023/03/08 10:33:19;;;;;;;105.70;41.42;;;3.00;99.90;;;;;;5039314;28;20052;-70
2023/03/08 10:36:01;;;;;;;106.32;41.65;;;3.00;99.90;;;;;;5038760;28;20026;-69
2023/03/08 10:38:29;;;;;;;95.47;37.88;;;2.90;99.90;;;;;;5039763;28;20052;-69
2023/03/08 10:41:03;;;;;;;96.10;39.30;;;2.90;99.90;;;;;;5040290;28;20063;-70
2023/03/08 10:43:32;;;;;;;85.82;33.78;;;2.90;99.90;;;;;;5039259;28;20033;-68
2023/03/08 10:46:13;;;;;;;64.28;27.98;;;2.90;99.90;;;;;;5036953;28;20425;-69
2023/03/08 10:48:39;;;;;;;62.35;26.17;;;2.80;99.90;;;;;;5036899;28;20069;-70
2023/03/08 10:51:14;;;;;;;60.83;25.85;;;2.90;99.90;;;;;;5040787;28;20037;-69
2023/03/08 10:53:53;;;;;;;53.78;22.60;;;3.00;99.90;;;;;;5039337;28;20029;-70
2023/03/08 10:56:24;;;;;;;37.38;18.02;;;3.10;99.90;;;;;;5041202;28;20025;-70
2023/03/08 10:58:54;;;;;;;38.97;17.38;;;3.30;99.90;;;;;;5040528;28;20038;-68
2023/03/08 11:01:27;;;;;;;34.50;16.02;;;3.50;99.90;;;;;;5038321;28;20427;-70
2023/03/08 11:04:28;;;;;;;31.58;15.93;;;3.80;99.90;;;;;;5054729;28;20457;-69
2023/03/08 11:06:54;;;;;;;31.27;14.98;;;4.20;99.90;;;;;;5018662;28;20046;-68
2023/03/08 11:09:26;;;;;;;32.15;14.15;;;4.50;99.90;;;;;;5041033;28;20032;-68
2023/03/08 11:11:53;;;;;;;36.35;14.45;;;4.90;99.90;;;;;;5040548;28;20017;-70
2023/03/08 11:14:19;;;;;;;30.27;14.60;;;5.00;99.90;;;;;;5046554;28;20140;-69
2023/03/08 11:16:54;;;;;;;30.50;15.73;;;5.10;99.90;;;;;;5040848;28;20033;-68
2023/03/08 11:19:39;;;;;;;30.02;14.90;;;5.20;99.90;;;;;;5039571;28;20100;-68
2023/03/08 11:22:19;;;;;;;30.55;14.32;;;5.10;99.90;;;;;;5037915;28;20059;-69
2023/03/08 11:25:04;;;;;;;25.73;13.75;;;5.00;99.90;;;;;;5038278;28;20033;-69
2023/03/08 11:27:35;;;;;;;;;;;5.20;99.90;;;;;;5040130;28;20050;-69
2023/03/08 11:30:06;;;;;;;29.23;12.07;;;5.50;99.90;;;;;;5037432;28;19986;-69
2023/03/08 11:32:59;;;;;;;29.92;12.88;;;6.00;99.90;;;;;;5033729;28;20052;-69
2023/03/08 11:36:03;;;;;;;26.23;12.43;;;6.10;99.90;;;;;;5036542;28;20410;-69
2023/03/08 11:38:31;;;;;;;27.35;12.40;;;6.10;99.90;;;;;;5040340;28;20033;-70
2023/03/08 11:41:28;;;;;;;28.77;11.65;;;6.00;99.90;;;;;;5042700;28;20033;-68
2023/03/08 11:44:12;;;;;;;31.00;12.27;;;6.10;99.90;;;;;;5041855;28;20037;-68
2023/03/08 11:46:50;;;;;;;22.80;11.70;;;6.20;99.90;;;;;;5042680;28;20025;-69
2023/03/08 11:49:39;;;;;;;20.38;10.55;;;6.40;99.90;;;;;;5042810;28;20105;-67
2023/03/08 11:52:23;;;;;;;22.33;10.85;;;6.90;99.90;;;;;;5042135;28;20044;-68
2023/03/08 11:55:04;;;;;;;25.80;10.40;;;7.50;99.90;;;;;;5040171;28;20049;-68
2023/03/08 11:57:36;;;;;;;23.90;10.15;;;8.00;99.90;;;;;;5041924;28;20021;-68
2023/03/08 12:00:13;;;;;;;21.40;11.60;;;8.20;99.90;;;;;;5040136;28;20033;-68
2023/03/08 12:02:45;;;;;;;20.63;10.82;;;8.30;99.90;;;;;;5041653;28;20387;-67
2023/03/08 12:05:32;;;;;;;21.40;11.80;;;8.40;99.90;;;;;;5042983;28;20055;-68
2023/03/08 12:08:03;;;;;;;24.90;12.75;;;8.70;99.90;;;;;;5042267;28;20033;-68
2023/03/08 12:10:41;;;;;;;20.85;11.45;;;9.00;99.90;;;;;;5041214;28;20057;-70
2023/03/08 12:13:27;;;;;;;19.50;9.55;;;9.00;99.90;;;;;;5041799;28;20030;-69
2023/03/08 12:16:09;;;;;;;17.40;9.68;;;8.80;99.90;;;;;;5039927;28;20028;-70
2023/03/08 12:18:38;;;;;;;21.83;11.35;;;8.70;99.90;;;;;;5041147;28;20454;-69
2023/03/08 12:21:10;;;;;;;25.95;12.85;;;8.50;99.90;;;;;;5041970;28;20037;-69
2023/03/08 12:23:56;;;;;;;23.77;12.68;;;8.20;99.90;;;;;;5039926;28;20037;-69
2023/03/08 12:26:42;;;;;;;26.15;13.43;;;8.10;99.90;;;;;;5038775;28;20033;-69
2023/03/08 12:29:32;;;;;;;28.75;13.05;;;8.00;99.90;;;;;;5037412;28;20426;-69
2023/03/08 12:31:59;;;;;;;22.33;11.32;;;8.10;99.90;;;;;;5037931;28;20025;-69
2023/03/08 12:34:34;;;;;;;20.70;10.32;;;8.20;99.90;;;;;;5039576;28;20030;-70
2023/03/08 12:37:00;;;;;;;24.83;12.13;;;8.30;99.90;;;;;;5038483;28;20034;-70
2023/03/08 12:39:35;;;;;;;22.77;11.52;;;8.10;99.90;;;;;;5040654;28;20093;-69
2023/03/08 12:42:13;;;;;;;18.83;9.98;;;8.00;99.90;;;;;;5038101;28;20093;-70
2023/03/08 12:44:39;;;;;;;18.33;9.88;;;8.00;99.90;;;;;;5041609;28;20453;-70
2023/03/08 12:47:12;;;;;;;21.45;10.45;;;8.00;99.90;;;;;;5041616;28;20049;-69
2023/03/08 12:49:40;;;;;;;18.35;9.60;;;8.00;99.90;;;;;;5039905;28;20033;-71